Time;durP1;ratioP1;P1;durP2;ratioP2;P2;SDS_P1;SDS_P2;PMS_P1;PMS_P2;Temp;Humidity;BMP_temperature;BMP_pressure;BME280_temperature;BME280_humidity;BME280_pressure;Samples;Min_cycle;Max_cycle;Signal;HPM_P1;HPM_P2
2022/07/25 00:02:06;;;;;;;3.53;2.08;;;;;;;;;;4980082;23;20131;-63
2022/07/25 00:04:33;;;;;;;7.53;2.72;;;;;;;;;;4969757;28;20056;-63
2022/07/25 00:07:00;;;;;;;4.32;2.22;;;;;;;;;;4980081;28;20050;-63
2022/07/25 00:09:28;;;;;;;6.63;2.40;;;;;;;;;;4987852;28;20062;-64
2022/07/25 00:11:54;;;;;;;5.35;2.05;;;;;;;;;;4974111;28;20058;-63
2022/07/25 00:14:21;;;;;;;2.83;1.65;;;;;;;;;;4986092;28;20058;-64
2022/07/25 00:16:47;;;;;;;4.55;2.00;;;;;;;;;;4978946;28;20053;-63
2022/07/25 00:19:14;;;;;;;5.88;2.15;;;;;;;;;;4991641;28;20065;-64
2022/07/25 00:21:40;;;;;;;4.93;2.25;;;;;;;;;;4981168;28;20137;-64
2022/07/25 00:24:07;;;;;;;4.47;2.20;;;;;;;;;;4992381;28;20110;-64
2022/07/25 00:26:35;;;;;;;5.00;2.55;;;;;;;;;;4988032;28;20062;-64
2022/07/25 00:29:04;;;;;;;5.80;2.65;;;;;;;;;;4990341;28;20054;-63
2022/07/25 00:31:30;;;;;;;5.22;2.00;;;;;;;;;;4991392;28;20059;-63
2022/07/25 00:33:57;;;;;;;7.78;2.92;;;;;;;;;;4981356;28;20058;-63
2022/07/25 00:36:25;;;;;;;6.45;3.17;;;;;;;;;;4992087;28;20050;-63
2022/07/25 00:38:51;;;;;;;10.85;3.08;;;;;;;;;;4977935;28;20058;-63
2022/07/25 00:41:18;;;;;;;3.17;1.92;;;;;;;;;;4991138;28;20050;-63
2022/07/25 00:43:46;;;;;;;7.28;2.75;;;;;;;;;;4999641;28;20053;-63
2022/07/25 00:46:14;;;;;;;4.82;2.28;;;;;;;;;;4988907;28;20073;-63
2022/07/25 00:48:40;;;;;;;8.10;3.00;;;;;;;;;;4989892;28;20054;-63
2022/07/25 00:51:07;;;;;;;5.53;3.03;;;;;;;;;;4979349;28;20069;-63
2022/07/25 00:53:34;;;;;;;6.30;3.30;;;;;;;;;;4986984;28;20062;-63
2022/07/25 00:56:01;;;;;;;4.63;2.25;;;;;;;;;;4979781;28;20064;-63
2022/07/25 00:58:29;;;;;;;7.25;3.75;;;;;;;;;;4989721;28;20061;-63
2022/07/25 01:00:57;;;;;;;6.18;2.50;;;;;;;;;;4980309;28;20072;-63
2022/07/25 01:03:24;;;;;;;5.78;2.40;;;;;;;;;;4995752;28;20054;-63
2022/07/25 01:05:53;;;;;;;4.82;2.67;;;;;;;;;;4985208;28;20050;-63
2022/07/25 01:08:21;;;;;;;3.58;1.95;;;;;;;;;;4981685;28;20058;-64
2022/07/25 01:10:48;;;;;;;7.32;2.95;;;;;;;;;;4985660;28;20062;-64
2022/07/25 01:13:15;;;;;;;3.70;2.15;;;;;;;;;;4976556;28;20065;-63
2022/07/25 01:15:42;;;;;;;6.75;2.40;;;;;;;;;;4986809;28;20106;-63
2022/07/25 01:18:10;;;;;;;11.07;4.40;;;;;;;;;;4977216;28;20108;-63
2022/07/25 01:20:38;;;;;;;8.35;3.10;;;;;;;;;;4985076;28;20062;-63
2022/07/25 01:23:05;;;;;;;5.68;2.60;;;;;;;;;;4981303;28;20059;-63
2022/07/25 01:25:31;;;;;;;4.13;2.20;;;;;;;;;;4985663;28;20054;-64
2022/07/25 01:27:58;;;;;;;5.32;2.50;;;;;;;;;;4979264;28;20046;-63
2022/07/25 01:30:25;;;;;;;8.13;3.78;;;;;;;;;;4986905;28;20058;-64
2022/07/25 01:32:52;;;;;;;10.05;3.90;;;;;;;;;;4986975;28;20050;-63
2022/07/25 01:35:18;;;;;;;10.27;4.13;;;;;;;;;;4980226;28;20054;-63
2022/07/25 01:37:46;;;;;;;6.18;2.88;;;;;;;;;;4987183;28;20058;-63
2022/07/25 01:40:13;;;;;;;8.35;4.30;;;;;;;;;;4981221;28;20069;-64
2022/07/25 01:42:40;;;;;;;8.77;3.55;;;;;;;;;;4986703;28;20065;-63
2022/07/25 01:45:07;;;;;;;8.85;3.72;;;;;;;;;;4978395;28;20056;-63
2022/07/25 01:47:34;;;;;;;8.20;3.65;;;;;;;;;;4986765;28;20054;-63
2022/07/25 01:50:00;;;;;;;4.47;2.40;;;;;;;;;;4979380;28;20054;-63
2022/07/25 01:52:27;;;;;;;5.18;2.63;;;;;;;;;;4985235;28;20050;-63
2022/07/25 01:54:55;;;;;;;12.48;4.57;;;;;;;;;;4992155;28;20141;-63
2022/07/25 01:57:22;;;;;;;13.05;4.43;;;;;;;;;;4986448;28;20105;-63
2022/07/25 01:59:48;;;;;;;16.60;5.85;;;;;;;;;;4977944;28;20077;-63
2022/07/25 02:02:15;;;;;;;5.18;2.75;;;;;;;;;;4974462;28;20113;-62
2022/07/25 02:04:41;;;;;;;10.98;5.68;;;;;;;;;;4967290;28;20054;-63
2022/07/25 02:07:08;;;;;;;9.13;4.40;;;;;;;;;;4989009;28;20058;-62
2022/07/25 02:09:35;;;;;;;5.03;2.22;;;;;;;;;;4999516;28;20108;-62
2022/07/25 02:12:03;;;;;;;9.68;4.07;;;;;;;;;;5005190;28;20054;-62
2022/07/25 02:14:29;;;;;;;6.25;2.88;;;;;;;;;;5004122;28;20050;-63
2022/07/25 02:16:56;;;;;;;11.00;5.30;;;;;;;;;;4983450;28;20054;-62
2022/07/25 02:19:22;;;;;;;10.52;5.50;;;;;;;;;;4986668;28;20144;-62
2022/07/25 02:21:49;;;;;;;9.93;5.15;;;;;;;;;;4983517;28;20061;-62
2022/07/25 02:24:16;;;;;;;10.13;4.30;;;;;;;;;;4988911;28;20077;-62
2022/07/25 02:26:42;;;;;;;5.20;2.83;;;;;;;;;;4982313;28;20061;-63
2022/07/25 02:29:10;;;;;;;10.93;5.75;;;;;;;;;;4988036;28;20047;-62
2022/07/25 02:31:37;;;;;;;7.78;3.97;;;;;;;;;;4982650;28;20068;-62
2022/07/25 02:34:04;;;;;;;7.10;3.20;;;;;;;;;;4988193;28;20055;-63
2022/07/25 02:36:30;;;;;;;12.05;5.85;;;;;;;;;;4982611;28;20049;-62
2022/07/25 02:38:57;;;;;;;8.65;4.32;;;;;;;;;;4987915;28;20047;-63
2022/07/25 02:41:23;;;;;;;17.65;6.25;;;;;;;;;;4981595;28;20054;-62
2022/07/25 02:43:50;;;;;;;6.15;3.10;;;;;;;;;;4988504;28;20054;-63
2022/07/25 02:46:18;;;;;;;6.00;2.78;;;;;;;;;;4982351;28;20038;-62
2022/07/25 02:48:45;;;;;;;6.13;3.05;;;;;;;;;;4988098;28;20141;-63
2022/07/25 02:51:11;;;;;;;10.82;3.63;;;;;;;;;;4982786;28;20058;-62
2022/07/25 02:53:38;;;;;;;8.98;4.80;;;;;;;;;;4988535;28;20054;-62
2022/07/25 02:56:05;;;;;;;7.65;3.15;;;;;;;;;;4987970;28;20061;-62
2022/07/25 02:58:31;;;;;;;8.10;3.22;;;;;;;;;;4964831;28;20126;-62
2022/07/25 03:00:58;;;;;;;5.55;2.90;;;;;;;;;;4968634;28;20058;-62
2022/07/25 03:03:26;;;;;;;6.43;3.15;;;;;;;;;;4979218;28;20058;-62
2022/07/25 03:05:53;;;;;;;5.50;2.60;;;;;;;;;;4989127;28;20060;-62
2022/07/25 03:08:20;;;;;;;10.48;5.57;;;;;;;;;;4969738;28;20122;-62
2022/07/25 03:10:46;;;;;;;6.10;3.17;;;;;;;;;;4968014;28;20050;-62
2022/07/25 03:13:13;;;;;;;8.23;4.35;;;;;;;;;;4973233;28;20050;-62
2022/07/25 03:15:39;;;;;;;6.63;3.70;;;;;;;;;;4987391;28;20061;-63
2022/07/25 03:18:06;;;;;;;7.53;3.53;;;;;;;;;;4982731;28;20120;-62
2022/07/25 03:20:34;;;;;;;10.43;5.03;;;;;;;;;;5003367;28;20064;-62
2022/07/25 03:23:01;;;;;;;7.38;3.47;;;;;;;;;;4982195;28;20060;-62
2022/07/25 03:25:27;;;;;;;6.43;3.42;;;;;;;;;;4987358;28;20058;-62
2022/07/25 03:27:55;;;;;;;9.45;5.07;;;;;;;;;;4979496;28;20046;-62
2022/07/25 03:30:21;;;;;;;13.77;5.90;;;;;;;;;;4968088;28;20085;-62
2022/07/25 03:32:48;;;;;;;6.20;3.20;;;;;;;;;;4963591;28;20063;-62
2022/07/25 03:35:15;;;;;;;7.97;4.00;;;;;;;;;;4987451;28;20061;-62
2022/07/25 03:37:43;;;;;;;14.50;5.75;;;;;;;;;;4987481;28;20058;-63
2022/07/25 03:40:10;;;;;;;5.95;3.33;;;;;;;;;;4981278;28;20065;-63
2022/07/25 03:42:37;;;;;;;7.07;3.67;;;;;;;;;;4987836;28;20061;-63
2022/07/25 03:45:04;;;;;;;5.78;3.30;;;;;;;;;;4997781;28;20097;-62
2022/07/25 03:47:30;;;;;;;11.95;4.70;;;;;;;;;;5003543;28;20054;-63
2022/07/25 03:49:57;;;;;;;7.72;3.90;;;;;;;;;;4985225;28;20059;-63
2022/07/25 03:52:23;;;;;;;12.52;5.93;;;;;;;;;;4970402;28;20055;-62
2022/07/25 03:54:52;;;;;;;15.15;6.28;;;;;;;;;;4967288;28;20050;-62
2022/07/25 03:57:20;;;;;;;8.80;4.35;;;;;;;;;;4971850;28;20318;-62
2022/07/25 03:59:46;;;;;;;7.57;3.37;;;;;;;;;;4966921;28;20051;-62
2022/07/25 04:02:13;;;;;;;11.13;5.45;;;;;;;;;;4985674;28;20305;-63
2022/07/25 04:04:39;;;;;;;10.75;5.43;;;;;;;;;;4979900;28;20053;-63
2022/07/25 04:07:06;;;;;;;7.60;3.88;;;;;;;;;;4972167;28;20051;-63
2022/07/25 04:09:32;;;;;;;8.07;4.22;;;;;;;;;;4968244;28;20080;-62
2022/07/25 04:12:00;;;;;;;10.75;4.78;;;;;;;;;;4991122;28;20082;-63
2022/07/25 04:14:27;;;;;;;9.60;5.32;;;;;;;;;;4985234;28;20050;-62
2022/07/25 04:16:54;;;;;;;12.10;5.32;;;;;;;;;;4991149;28;20047;-63
2022/07/25 04:19:20;;;;;;;8.00;2.90;;;;;;;;;;4990679;28;20058;-62
2022/07/25 04:21:47;;;;;;;13.88;6.32;;;;;;;;;;4984415;28;20061;-63
2022/07/25 04:24:13;;;;;;;8.88;4.95;;;;;;;;;;4990760;28;20054;-62
2022/07/25 04:26:40;;;;;;;5.97;3.10;;;;;;;;;;5001970;28;20050;-62
2022/07/25 04:29:08;;;;;;;11.43;6.05;;;;;;;;;;5005992;28;20058;-62
2022/07/25 04:31:35;;;;;;;15.63;7.53;;;;;;;;;;4984540;28;20053;-62
2022/07/25 04:34:01;;;;;;;9.32;4.60;;;;;;;;;;4979585;28;20053;-62
2022/07/25 04:36:28;;;;;;;10.95;6.18;;;;;;;;;;4976421;28;20058;-62
2022/07/25 04:38:55;;;;;;;9.90;4.88;;;;;;;;;;4990014;28;20050;-62
2022/07/25 04:41:22;;;;;;;11.07;5.53;;;;;;;;;;4984700;28;20066;-62
2022/07/25 04:43:48;;;;;;;10.45;4.85;;;;;;;;;;5007018;28;20058;-62
2022/07/25 04:46:19;;;;;;;11.57;5.85;;;;;;;;;;5000193;28;20050;-62
2022/07/25 04:48:46;;;;;;;9.18;5.07;;;;;;;;;;4990392;28;20145;-62
2022/07/25 04:51:12;;;;;;;6.38;3.63;;;;;;;;;;4984413;28;20061;-62
2022/07/25 04:53:39;;;;;;;11.07;5.70;;;;;;;;;;4989477;28;20054;-63
2022/07/25 04:56:05;;;;;;;6.78;3.38;;;;;;;;;;4983574;28;20141;-62
2022/07/25 04:58:32;;;;;;;7.93;4.25;;;;;;;;;;4990109;28;20050;-64
2022/07/25 05:00:59;;;;;;;9.68;4.63;;;;;;;;;;4984948;28;20151;-62
2022/07/25 05:03:27;;;;;;;18.88;8.10;;;;;;;;;;4979537;28;20062;-62
2022/07/25 05:05:53;;;;;;;14.02;6.97;;;;;;;;;;4971066;28;20062;-63
2022/07/25 05:08:22;;;;;;;7.28;3.38;;;;;;;;;;4979122;28;20141;-63
2022/07/25 05:10:49;;;;;;;9.93;5.43;;;;;;;;;;4984459;28;20050;-62
2022/07/25 05:13:16;;;;;;;13.30;7.45;;;;;;;;;;4977857;28;20086;-62
2022/07/25 05:15:43;;;;;;;10.45;4.10;;;;;;;;;;4987510;28;20054;-62
2022/07/25 05:18:10;;;;;;;9.20;4.78;;;;;;;;;;4977521;28;20057;-62
2022/07/25 05:20:38;;;;;;;16.45;9.23;;;;;;;;;;4987059;28;20057;-62
2022/07/25 05:23:05;;;;;;;10.48;5.47;;;;;;;;;;4978659;28;20058;-62
2022/07/25 05:25:31;;;;;;;15.50;8.00;;;;;;;;;;4985275;28;20042;-62
2022/07/25 05:28:05;;;;;;;9.70;5.13;;;;;;;;;;4986545;28;20133;-62
2022/07/25 05:30:32;;;;;;;15.35;6.95;;;;;;;;;;4976419;28;20057;-62
2022/07/25 05:32:58;;;;;;;13.25;7.40;;;;;;;;;;4985731;28;20046;-62
2022/07/25 05:35:25;;;;;;;7.63;3.83;;;;;;;;;;4976602;28;20050;-62
2022/07/25 05:37:53;;;;;;;20.48;7.50;;;;;;;;;;4987295;28;20049;-63
2022/07/25 05:40:19;;;;;;;;;;;;;;;;;;4977458;28;20066;-62
2022/07/25 05:42:46;;;;;;;7.95;3.95;;;;;;;;;;4984763;28;19933;-62
2022/07/25 05:45:15;;;;;;;15.63;8.25;;;;;;;;;;4987448;28;20046;-62
2022/07/25 05:47:41;;;;;;;7.65;4.00;;;;;;;;;;4984490;28;20168;-62
2022/07/25 05:50:10;;;;;;;10.93;5.03;;;;;;;;;;4987751;28;20062;-62
2022/07/25 05:52:36;;;;;;;12.77;6.57;;;;;;;;;;4982509;28;20058;-62
2022/07/25 05:55:05;;;;;;;11.82;6.22;;;;;;;;;;4988367;28;20065;-62
2022/07/25 05:57:31;;;;;;;;;;;;;;;;;;4982943;28;20074;-62
2022/07/25 05:59:58;;;;;;;10.73;4.80;;;;;;;;;;4989147;28;19922;-62
2022/07/25 06:02:24;;;;;;;9.65;4.70;;;;;;;;;;4983753;28;20160;-62
2022/07/25 06:04:51;;;;;;;14.00;6.70;;;;;;;;;;4986875;28;20130;-62
2022/07/25 06:07:18;;;;;;;10.52;4.30;;;;;;;;;;4988385;28;20114;-62
2022/07/25 06:09:44;;;;;;;7.00;3.80;;;;;;;;;;4982758;28;20089;-62
2022/07/25 06:12:14;;;;;;;14.05;5.32;;;;;;;;;;4988437;28;20062;-62
2022/07/25 06:14:40;;;;;;;7.57;3.55;;;;;;;;;;4980215;28;20054;-62
2022/07/25 06:17:07;;;;;;;8.52;4.60;;;;;;;;;;4988315;28;20066;-62
2022/07/25 06:19:33;;;;;;;13.15;6.25;;;;;;;;;;4981855;28;20061;-62
2022/07/25 06:22:00;;;;;;;14.52;7.22;;;;;;;;;;4968960;28;20097;-62
2022/07/25 06:24:26;;;;;;;9.20;4.75;;;;;;;;;;4968755;28;20073;-62
2022/07/25 06:26:53;;;;;;;12.70;6.15;;;;;;;;;;4965549;28;20117;-62
2022/07/25 06:29:22;;;;;;;12.65;6.90;;;;;;;;;;4968583;28;20057;-63
2022/07/25 06:31:48;;;;;;;;;;;;;;;;;;4981292;28;20050;-62
2022/07/25 06:34:15;;;;;;;11.40;5.78;;;;;;;;;;4975710;28;19957;-62
2022/07/25 06:36:41;;;;;;;10.85;5.18;;;;;;;;;;4977067;28;20078;-62
2022/07/25 06:39:08;;;;;;;7.82;4.03;;;;;;;;;;4988001;28;20046;-62
2022/07/25 06:41:35;;;;;;;7.88;4.05;;;;;;;;;;4981680;28;20053;-62
2022/07/25 06:44:02;;;;;;;9.77;4.95;;;;;;;;;;4987543;28;20046;-62
2022/07/25 06:46:31;;;;;;;10.02;4.57;;;;;;;;;;4982338;28;20054;-62
2022/07/25 06:48:58;;;;;;;8.63;4.65;;;;;;;;;;4988437;28;20074;-62
2022/07/25 06:51:25;;;;;;;10.87;4.77;;;;;;;;;;4975889;28;20057;-62
2022/07/25 06:53:52;;;;;;;9.63;4.50;;;;;;;;;;4976483;28;20367;-62
2022/07/25 06:56:19;;;;;;;10.30;5.43;;;;;;;;;;4977819;28;20077;-62
2022/07/25 06:58:46;;;;;;;9.25;4.68;;;;;;;;;;4968159;28;20042;-62
2022/07/25 07:01:12;;;;;;;13.73;5.38;;;;;;;;;;4981995;28;20089;-62
2022/07/25 07:03:41;;;;;;;9.65;4.68;;;;;;;;;;4987465;28;20050;-62
2022/07/25 07:06:08;;;;;;;12.48;4.32;;;;;;;;;;4984734;28;20059;-62
2022/07/25 07:08:35;;;;;;;9.48;4.00;;;;;;;;;;4967247;28;20061;-63
2022/07/25 07:11:01;;;;;;;11.07;5.25;;;;;;;;;;4967575;28;20054;-63
2022/07/25 07:13:28;;;;;;;12.18;5.20;;;;;;;;;;4980375;28;20062;-62
2022/07/25 07:15:56;;;;;;;9.60;5.15;;;;;;;;;;4987897;28;20097;-62
2022/07/25 07:18:23;;;;;;;13.32;4.80;;;;;;;;;;4981377;28;20062;-62
2022/07/25 07:20:51;;;;;;;6.22;3.38;;;;;;;;;;4986934;28;20069;-62
2022/07/25 07:23:18;;;;;;;10.27;4.25;;;;;;;;;;4969545;28;20059;-63
2022/07/25 07:25:45;;;;;;;8.35;3.88;;;;;;;;;;4967108;28;20061;-62
2022/07/25 07:28:12;;;;;;;10.70;3.90;;;;;;;;;;4972030;28;20117;-62
2022/07/25 07:30:38;;;;;;;7.53;3.65;;;;;;;;;;4987209;28;20070;-62
2022/07/25 07:33:05;;;;;;;6.00;3.10;;;;;;;;;;4980819;28;20058;-62
2022/07/25 07:35:32;;;;;;;7.07;3.38;;;;;;;;;;4987485;28;20058;-63
2022/07/25 07:38:00;;;;;;;8.68;3.00;;;;;;;;;;4981400;28;20181;-62
2022/07/25 07:40:26;;;;;;;7.07;3.38;;;;;;;;;;4987834;28;20142;-63
2022/07/25 07:42:55;;;;;;;7.97;3.05;;;;;;;;;;4979368;28;20066;-62
2022/07/25 07:45:24;;;;;;;4.88;2.85;;;;;;;;;;4967967;28;20121;-62
2022/07/25 07:47:52;;;;;;;4.75;2.50;;;;;;;;;;4962966;28;20054;-63
2022/07/25 07:50:21;;;;;;;10.07;2.47;;;;;;;;;;4967542;28;20070;-63
2022/07/25 07:52:48;;;;;;;7.10;2.42;;;;;;;;;;4967921;28;20061;-63
2022/07/25 07:58:00;;;;;;;5.63;2.35;;;;;;;;;;4986360;28;20116;-62
2022/07/25 08:00:29;;;;;;;4.60;2.00;;;;;;;;;;4980001;28;20046;-62
2022/07/25 08:02:56;;;;;;;3.40;1.63;;;;;;;;;;4987069;28;20050;-62
2022/07/25 08:05:23;;;;;;;8.27;2.30;;;;;;;;;;4981322;28;20062;-63
2022/07/25 08:07:51;;;;;;;3.15;1.73;;;;;;;;;;4986629;28;20085;-62
2022/07/25 08:10:21;;;;;;;4.17;1.93;;;;;;;;;;4981574;28;20093;-62
2022/07/25 08:12:47;;;;;;;5.47;2.30;;;;;;;;;;4986982;28;20305;-62
2022/07/25 08:15:14;;;;;;;6.63;2.20;;;;;;;;;;4981108;28;20058;-62
2022/07/25 08:17:42;;;;;;;4.00;2.08;;;;;;;;;;4986817;28;20065;-62
2022/07/25 08:20:09;;;;;;;10.65;1.95;;;;;;;;;;4980152;28;20049;-62
2022/07/25 08:22:37;;;;;;;4.50;2.08;;;;;;;;;;4986635;28;20050;-62
2022/07/25 08:25:03;;;;;;;3.70;1.67;;;;;;;;;;4980065;28;20054;-63
2022/07/25 08:27:33;;;;;;;7.50;1.95;;;;;;;;;;4987207;28;20054;-62
2022/07/25 08:30:00;;;;;;;3.47;1.75;;;;;;;;;;4981559;28;20105;-62
2022/07/25 08:32:29;;;;;;;5.75;1.90;;;;;;;;;;4987171;28;20129;-62
2022/07/25 08:34:56;;;;;;;2.85;1.65;;;;;;;;;;4967076;28;20108;-62
2022/07/25 08:37:24;;;;;;;4.05;2.10;;;;;;;;;;4987780;28;20116;-62
2022/07/25 08:39:51;;;;;;;4.38;1.90;;;;;;;;;;4984915;28;20082;-62
2022/07/25 08:42:17;;;;;;;3.55;1.85;;;;;;;;;;4990679;28;20054;-63
2022/07/25 08:44:49;;;;;;;2.50;1.50;;;;;;;;;;4981494;28;20121;-62
2022/07/25 08:47:16;;;;;;;3.25;1.48;;;;;;;;;;4984016;28;20055;-63
2022/07/25 08:49:43;;;;;;;2.10;1.20;;;;;;;;;;4991351;28;20050;-62
2022/07/25 08:52:09;;;;;;;3.28;1.23;;;;;;;;;;4968326;28;20106;-63
2022/07/25 08:54:36;;;;;;;2.00;1.10;;;;;;;;;;4970444;28;20086;-62
2022/07/25 08:57:04;;;;;;;4.60;1.15;;;;;;;;;;4977623;28;20124;-63
2022/07/25 08:59:30;;;;;;;2.92;1.33;;;;;;;;;;5005635;28;20185;-63
2022/07/25 09:02:01;;;;;;;9.13;1.35;;;;;;;;;;4983791;28;20073;-62
2022/07/25 09:04:28;;;;;;;5.00;1.73;;;;;;;;;;4990231;28;20101;-62
2022/07/25 09:07:00;;;;;;;3.83;1.27;;;;;;;;;;4983448;28;20117;-62
2022/07/25 09:09:30;;;;;;;4.15;1.15;;;;;;;;;;4990122;28;20050;-62
2022/07/25 09:11:57;;;;;;;2.38;1.40;;;;;;;;;;4983922;28;20054;-63
2022/07/25 09:14:24;;;;;;;4.32;1.35;;;;;;;;;;4990365;28;20053;-62
2022/07/25 09:16:51;;;;;;;3.40;1.00;;;;;;;;;;4979854;28;20043;-63
2022/07/25 09:19:19;;;;;;;3.65;1.50;;;;;;;;;;4969750;28;20062;-62
2022/07/25 09:21:57;;;;;;;5.88;1.27;;;;;;;;;;4981459;28;20039;-62
2022/07/25 09:24:24;;;;;;;4.93;1.38;;;;;;;;;;4989612;28;20121;-62
2022/07/25 09:26:52;;;;;;;8.35;1.48;;;;;;;;;;4982726;28;20050;-62
2022/07/25 09:29:20;;;;;;;3.22;1.00;;;;;;;;;;4969902;28;20062;-62
2022/07/25 09:31:47;;;;;;;1.50;1.15;;;;;;;;;;4966660;28;20059;-62
2022/07/25 09:34:16;;;;;;;3.63;1.40;;;;;;;;;;4988040;28;20065;-62
2022/07/25 09:36:52;;;;;;;3.35;1.02;;;;;;;;;;4989579;28;20050;-62
2022/07/25 09:39:19;;;;;;;5.88;1.30;;;;;;;;;;4981466;28;20054;-63
2022/07/25 09:41:45;;;;;;;4.22;1.08;;;;;;;;;;4988653;28;20046;-62
2022/07/25 09:44:16;;;;;;;5.30;1.20;;;;;;;;;;4968378;28;20053;-63
2022/07/25 09:46:44;;;;;;;8.32;1.25;;;;;;;;;;4970012;28;20083;-62
2022/07/25 09:49:13;;;;;;;2.88;1.08;;;;;;;;;;4977898;28;20088;-62
2022/07/25 09:51:40;;;;;;;3.75;1.00;;;;;;;;;;4988700;28;20062;-62
2022/07/25 09:54:08;;;;;;;2.60;1.07;;;;;;;;;;4982377;28;20074;-61
2022/07/25 09:56:36;;;;;;;;;;;;;;;;;;5005667;28;20050;-62
2022/07/25 09:59:03;;;;;;;7.43;1.30;;;;;;;;;;4983843;28;19925;-62
2022/07/25 10:01:35;;;;;;;2.25;1.05;;;;;;;;;;4970474;28;20063;-62
2022/07/25 10:04:08;;;;;;;4.90;1.27;;;;;;;;;;4965966;28;20109;-62
2022/07/25 10:06:39;;;;;;;3.40;1.25;;;;;;;;;;4983137;28;20144;-62
2022/07/25 10:09:11;;;;;;;8.32;1.35;;;;;;;;;;4978587;28;20053;-62
2022/07/25 10:11:38;;;;;;;8.25;1.50;;;;;;;;;;4988599;28;20058;-62
2022/07/25 10:14:09;;;;;;;3.53;1.00;;;;;;;;;;4983351;28;20054;-62
2022/07/25 10:16:44;;;;;;;4.93;1.15;;;;;;;;;;4987039;28;20143;-62
2022/07/25 10:19:13;;;;;;;6.07;1.17;;;;;;;;;;4987252;28;20058;-62
2022/07/25 10:21:39;;;;;;;;;;;;;;;;;;4979284;28;20108;-63
2022/07/25 10:24:07;;;;;;;5.70;1.38;;;;;;;;;;4997166;28;19925;-62
2022/07/25 10:26:37;;;;;;;6.47;1.10;;;;;;;;;;4997697;28;20053;-62
2022/07/25 10:29:08;;;;;;;6.55;1.50;;;;;;;;;;4987499;28;20125;-62
2022/07/25 10:31:35;;;;;;;5.00;1.48;;;;;;;;;;4977787;28;20050;-63
2022/07/25 10:34:03;;;;;;;4.80;1.50;;;;;;;;;;4989356;28;20050;-62
2022/07/25 10:36:42;;;;;;;7.43;1.58;;;;;;;;;;4982396;28;20049;-62
2022/07/25 10:39:09;;;;;;;7.85;1.30;;;;;;;;;;4985577;28;20105;-62
2022/07/25 10:41:39;;;;;;;7.05;1.42;;;;;;;;;;4988275;28;20058;-62
2022/07/25 10:44:11;;;;;;;5.53;1.20;;;;;;;;;;4977550;28;20049;-62
2022/07/25 10:46:37;;;;;;;5.03;1.23;;;;;;;;;;4988785;28;20077;-62
2022/07/25 10:49:05;;;;;;;2.53;1.15;;;;;;;;;;4978389;28;20050;-62
2022/07/25 10:51:33;;;;;;;4.37;1.30;;;;;;;;;;4988006;28;20060;-62
2022/07/25 10:54:00;;;;;;;4.63;1.55;;;;;;;;;;4979575;28;20081;-62
2022/07/25 10:56:28;;;;;;;8.40;1.88;;;;;;;;;;4988637;28;20073;-63
2022/07/25 10:58:56;;;;;;;7.55;1.60;;;;;;;;;;4982704;28;20146;-63
2022/07/25 11:01:24;;;;;;;4.75;1.20;;;;;;;;;;4978526;28;20053;-62
2022/07/25 11:03:52;;;;;;;4.70;1.20;;;;;;;;;;4992502;28;20085;-62
2022/07/25 11:06:29;;;;;;;4.23;1.13;;;;;;;;;;4978464;28;20148;-62
2022/07/25 11:08:58;;;;;;;5.07;1.77;;;;;;;;;;4987324;28;20073;-62
2022/07/25 11:11:32;;;;;;;6.10;1.55;;;;;;;;;;4978611;28;20127;-62
2022/07/25 11:14:00;;;;;;;6.90;1.33;;;;;;;;;;4986363;28;20058;-62
2022/07/25 11:16:28;;;;;;;5.60;1.27;;;;;;;;;;4977314;28;20137;-62
2022/07/25 11:18:55;;;;;;;5.13;1.30;;;;;;;;;;4988760;28;20050;-62
2022/07/25 11:21:22;;;;;;;4.53;1.20;;;;;;;;;;4979959;28;20054;-62
2022/07/25 11:23:50;;;;;;;5.32;1.58;;;;;;;;;;4982037;28;20108;-62
2022/07/25 11:26:17;;;;;;;6.78;1.40;;;;;;;;;;4987463;28;20050;-62
2022/07/25 11:28:45;;;;;;;4.50;1.27;;;;;;;;;;4977699;28;20050;-62
2022/07/25 11:31:13;;;;;;;6.53;1.40;;;;;;;;;;4986904;28;20061;-62
2022/07/25 11:33:40;;;;;;;5.05;1.23;;;;;;;;;;4977341;28;20068;-62
2022/07/25 11:36:09;;;;;;;6.37;1.30;;;;;;;;;;4996136;28;20058;-62
2022/07/25 11:38:36;;;;;;;13.95;1.77;;;;;;;;;;4978634;28;20150;-62
2022/07/25 11:41:02;;;;;;;5.70;1.42;;;;;;;;;;4987313;28;20046;-62
2022/07/25 11:43:29;;;;;;;10.48;1.50;;;;;;;;;;5005251;28;20069;-62
2022/07/25 11:45:56;;;;;;;7.13;1.60;;;;;;;;;;4978490;28;20050;-63
2022/07/25 11:48:31;;;;;;;5.88;1.52;;;;;;;;;;4987769;28;20053;-62
2022/07/25 11:50:58;;;;;;;5.97;1.40;;;;;;;;;;4975824;28;20046;-62
2022/07/25 11:53:25;;;;;;;10.93;1.52;;;;;;;;;;4984818;28;20068;-62
2022/07/25 11:55:52;;;;;;;5.13;1.52;;;;;;;;;;4977615;28;20077;-62
2022/07/25 11:58:23;;;;;;;9.55;1.35;;;;;;;;;;4988354;28;20053;-62
2022/07/25 12:00:50;;;;;;;5.63;1.65;;;;;;;;;;4979046;28;20057;-62
2022/07/25 12:03:17;;;;;;;3.28;1.20;;;;;;;;;;4982673;28;20054;-62
2022/07/25 12:05:45;;;;;;;4.27;1.10;;;;;;;;;;4984270;28;20097;-62
2022/07/25 12:08:12;;;;;;;;;;;;;;;;;;4972629;28;20312;-62
2022/07/25 12:10:39;;;;;;;6.60;1.70;;;;;;;;;;4985438;28;19922;-62
2022/07/25 12:13:06;;;;;;;4.68;1.45;;;;;;;;;;4976525;28;20113;-62
2022/07/25 12:15:35;;;;;;;5.95;1.55;;;;;;;;;;4986178;28;20054;-62
2022/07/25 12:18:03;;;;;;;6.03;1.52;;;;;;;;;;4979806;28;20050;-62
2022/07/25 12:20:30;;;;;;;11.27;1.98;;;;;;;;;;4987077;28;20133;-62
2022/07/25 12:23:05;;;;;;;7.18;1.40;;;;;;;;;;4982013;28;20057;-62
2022/07/25 12:25:32;;;;;;;4.25;1.40;;;;;;;;;;4986352;28;20042;-62
2022/07/25 12:27:59;;;;;;;4.20;1.20;;;;;;;;;;4981214;28;20061;-62
2022/07/25 12:30:25;;;;;;;4.82;1.38;;;;;;;;;;4986131;28;20057;-63
2022/07/25 12:32:52;;;;;;;5.53;1.60;;;;;;;;;;4982705;28;20054;-62
2022/07/25 12:35:18;;;;;;;6.60;1.88;;;;;;;;;;4985928;28;20117;-62
2022/07/25 12:37:45;;;;;;;7.30;1.92;;;;;;;;;;4987512;28;20054;-62
2022/07/25 12:40:15;;;;;;;8.93;1.40;;;;;;;;;;4981532;28;20065;-62
2022/07/25 12:42:43;;;;;;;4.22;1.50;;;;;;;;;;4985634;28;20065;-62
2022/07/25 12:45:11;;;;;;;10.68;1.85;;;;;;;;;;4980873;28;20057;-62
2022/07/25 12:47:37;;;;;;;5.97;1.70;;;;;;;;;;4987728;28;20165;-62
2022/07/25 12:50:05;;;;;;;5.60;1.40;;;;;;;;;;4982036;28;20057;-62
2022/07/25 12:52:31;;;;;;;7.95;1.27;;;;;;;;;;4983519;28;20061;-62
2022/07/25 12:54:58;;;;;;;7.38;1.70;;;;;;;;;;4980609;28;20050;-62
2022/07/25 12:57:27;;;;;;;8.10;2.00;;;;;;;;;;4987055;28;20055;-62
2022/07/25 12:59:53;;;;;;;6.22;1.75;;;;;;;;;;4978000;28;20101;-62
2022/07/25 13:02:20;;;;;;;13.07;1.77;;;;;;;;;;4987446;28;20061;-62
2022/07/25 13:04:47;;;;;;;4.05;1.50;;;;;;;;;;4979135;28;20165;-62
2022/07/25 13:07:14;;;;;;;9.55;1.55;;;;;;;;;;4986087;28;20054;-62
2022/07/25 13:09:41;;;;;;;11.38;1.65;;;;;;;;;;4981585;28;20069;-62
2022/07/25 13:12:08;;;;;;;6.40;1.63;;;;;;;;;;4986195;28;20046;-62
2022/07/25 13:14:36;;;;;;;7.78;2.00;;;;;;;;;;4980241;28;20042;-63
2022/07/25 13:17:04;;;;;;;7.53;1.70;;;;;;;;;;4983358;28;20047;-62
2022/07/25 13:19:30;;;;;;;7.25;1.48;;;;;;;;;;4985601;28;20073;-62
2022/07/25 13:21:57;;;;;;;6.18;1.58;;;;;;;;;;4980597;28;20069;-62
2022/07/25 13:24:23;;;;;;;3.75;1.77;;;;;;;;;;4985148;28;20051;-62
2022/07/25 13:26:51;;;;;;;5.32;1.38;;;;;;;;;;4979505;28;20062;-62
2022/07/25 13:29:17;;;;;;;8.30;1.52;;;;;;;;;;4987551;28;20054;-62
2022/07/25 13:31:46;;;;;;;6.85;1.48;;;;;;;;;;4980709;28;20057;-63
2022/07/25 13:34:12;;;;;;;6.40;1.90;;;;;;;;;;4985787;28;20074;-62
2022/07/25 13:36:39;;;;;;;4.97;1.90;;;;;;;;;;4980953;28;20050;-62
2022/07/25 13:39:06;;;;;;;5.95;1.80;;;;;;;;;;4986907;28;20054;-62
2022/07/25 13:41:32;;;;;;;4.05;1.50;;;;;;;;;;4979562;28;20050;-62
2022/07/25 13:43:59;;;;;;;7.38;2.33;;;;;;;;;;4984771;28;20061;-65
2022/07/25 13:46:26;;;;;;;8.10;1.52;;;;;;;;;;4979925;28;20129;-62
